Time;durP1;ratioP1;P1;durP2;ratioP2;P2;SDS_P1;SDS_P2;PMS_P1;PMS_P2;Temp;Humidity;BMP_temperature;BMP_pressure;BME280_temperature;BME280_humidity;BME280_pressure;Samples;Min_cycle;Max_cycle;Signal;HPM_P1;HPM_P2
2022/07/10 00:01:47;;;;;;;11.77;3.47;;;;;;;13.47;100.00;102998.19;7373611;19;20073;-78
2022/07/10 00:04:18;;;;;;;6.90;3.05;;;;;;;13.46;100.00;102991.13;7374693;19;20017;-78
2022/07/10 00:06:49;;;;;;;7.63;3.33;;;;;;;13.45;100.00;102984.06;7373797;19;20026;-80
2022/07/10 00:09:19;;;;;;;9.48;3.00;;;;;;;13.45;100.00;102989.34;7373331;19;20386;-78
2022/07/10 00:11:55;;;;;;;7.20;2.78;;;;;;;13.46;100.00;102990.22;7373954;19;20002;-78
2022/07/10 00:14:25;;;;;;;6.78;3.17;;;;;;;13.41;100.00;102984.78;7369341;19;20125;-78
2022/07/10 00:16:55;;;;;;;11.65;3.38;;;;;;;13.39;100.00;102984.75;7378377;19;20275;-78
2022/07/10 00:19:39;;;;;;;7.72;2.80;;;;;;;13.41;100.00;102979.53;7379174;19;20035;-80
2022/07/10 00:22:17;;;;;;;10.55;3.00;;;;;;;13.38;100.00;102985.59;7383669;19;20014;-80
2022/07/10 00:24:50;;;;;;;5.10;2.55;;;;;;;13.35;100.00;102974.03;7379338;19;20010;-79
2022/07/10 00:27:23;;;;;;;7.15;2.70;;;;;;;13.34;100.00;102986.31;7378882;19;20014;-79
2022/07/10 00:29:53;;;;;;;10.13;2.80;;;;;;;13.34;100.00;102982.78;7385767;19;20018;-79
2022/07/10 00:32:30;;;;;;;5.70;2.70;;;;;;;13.31;100.00;102985.31;7388473;19;21088;-81
2022/07/10 00:35:02;;;;;;;6.60;2.70;;;;;;;13.28;100.00;102975.56;7383818;19;20017;-77
2022/07/10 00:37:32;;;;;;;7.07;2.38;;;;;;;13.28;100.00;102983.47;7380506;19;20357;-75
2022/07/10 00:40:04;;;;;;;8.77;3.13;;;;;;;13.26;100.00;102982.50;7382629;19;20014;-75
2022/07/10 00:42:37;;;;;;;6.10;2.53;;;;;;;13.25;100.00;102969.28;7380320;19;20429;-76
2022/07/10 00:45:08;;;;;;;8.87;2.90;;;;;;;13.23;100.00;102963.06;7382554;19;20020;-77
2022/07/10 00:47:38;;;;;;;8.35;2.28;;;;;;;13.21;100.00;102960.38;7374371;19;20066;-77
2022/07/10 00:50:12;;;;;;;7.07;3.22;;;;;;;13.22;100.00;102953.34;7382703;19;20018;-77
2022/07/10 00:52:43;;;;;;;8.68;2.70;;;;;;;13.21;100.00;102970.91;7378118;19;20035;-76
2022/07/10 00:55:17;;;;;;;7.30;2.47;;;;;;;13.19;100.00;102964.69;7382817;19;20618;-76
2022/07/10 00:57:51;;;;;;;7.80;2.72;;;;;;;13.19;100.00;102969.94;7383617;19;20006;-77
2022/07/10 01:00:24;;;;;;;6.93;2.70;;;;;;;13.20;100.00;102968.22;7381579;19;20011;-76
2022/07/10 01:02:55;;;;;;;6.32;2.70;;;;;;;13.19;100.00;102969.94;7380924;19;20360;-76
2022/07/10 01:05:25;;;;;;;4.75;2.30;;;;;;;13.18;100.00;102970.78;7381508;19;20043;-76
2022/07/10 01:07:58;;;;;;;6.18;2.55;;;;;;;13.16;100.00;102967.19;7381958;19;20034;-75
2022/07/10 01:10:27;;;;;;;4.40;2.47;;;;;;;13.16;100.00;102964.56;7381723;19;20010;-76
2022/07/10 01:13:00;;;;;;;9.70;3.00;;;;;;;13.16;100.00;102961.00;7382161;19;20132;-79
2022/07/10 01:15:30;;;;;;;7.57;2.53;;;;;;;13.14;100.00;102958.31;7384543;19;20011;-79
2022/07/10 01:18:00;;;;;;;8.52;2.50;;;;;;;13.11;100.00;102955.56;7382827;19;21453;-76
2022/07/10 01:20:33;;;;;;;8.93;2.38;;;;;;;13.07;100.00;102949.28;7379237;19;20015;-75
2022/07/10 01:23:08;;;;;;;5.95;2.50;;;;;;;13.10;100.00;102953.78;7380076;19;20043;-77
2022/07/10 01:25:38;;;;;;;7.47;3.10;;;;;;;13.07;100.00;102953.66;7381372;19;20047;-76
2022/07/10 01:28:09;;;;;;;3.72;2.00;;;;;;;13.04;100.00;102949.19;7383781;19;20010;-75
2022/07/10 01:30:42;;;;;;;6.28;2.50;;;;;;;13.03;100.00;102951.75;7379723;19;20663;-76
2022/07/10 01:33:12;;;;;;;11.07;2.75;;;;;;;13.04;100.00;102950.91;7381111;19;20434;-75
2022/07/10 01:35:44;;;;;;;5.70;2.30;;;;;;;13.02;100.00;102942.06;7377987;19;20387;-76
2022/07/10 01:38:17;;;;;;;5.00;2.28;;;;;;;13.01;100.00;102945.53;7380578;19;20344;-76
2022/07/10 01:40:49;;;;;;;7.38;2.70;;;;;;;12.98;100.00;102942.78;7376276;19;20007;-75
2022/07/10 01:43:19;;;;;;;6.35;2.53;;;;;;;12.98;100.00;102945.41;7381816;19;20014;-75
2022/07/10 01:45:51;;;;;;;3.75;2.15;;;;;;;12.96;100.00;102934.81;7383858;19;20074;-75
2022/07/10 01:48:21;;;;;;;7.53;2.75;;;;;;;12.94;100.00;102935.59;7380915;19;20014;-75
2022/07/10 01:50:51;;;;;;;4.57;2.47;;;;;;;12.95;100.00;102934.78;7382019;19;20054;-76
2022/07/10 01:53:24;;;;;;;8.50;2.75;;;;;;;12.93;100.00;102934.72;7374131;19;20569;-76
2022/07/10 01:55:54;;;;;;;7.20;2.53;;;;;;;12.90;100.00;102934.59;7377494;19;20018;-77
2022/07/10 01:58:26;;;;;;;7.40;2.55;;;;;;;12.90;100.00;102933.69;7383420;19;20102;-77
2022/07/10 02:00:56;;;;;;;6.28;2.50;;;;;;;12.91;100.00;102935.50;7387346;19;20003;-79
2022/07/10 02:06:15;;;;;;;4.65;2.53;;;;;;;12.82;100.00;102928.16;7385702;19;20006;-78
2022/07/10 02:08:48;;;;;;;6.65;2.50;;;;;;;12.81;100.00;102928.09;7393340;19;20006;-79
2022/07/10 02:11:19;;;;;;;6.67;2.70;;;;;;;12.81;100.00;102934.25;7392025;19;20043;-79
2022/07/10 02:13:50;;;;;;;8.38;2.63;;;;;;;12.76;100.00;102928.81;7392619;19;20018;-80
2022/07/10 02:16:20;;;;;;;6.57;2.65;;;;;;;12.76;100.00;102934.09;7393225;19;20019;-79
2022/07/10 02:18:50;;;;;;;3.55;1.90;;;;;;;12.76;100.00;102931.44;7388828;19;20014;-78
2022/07/10 02:21:21;;;;;;;6.68;2.60;;;;;;;12.76;100.00;102928.81;7388243;19;20014;-79
2022/07/10 02:23:53;;;;;;;3.85;2.33;;;;;;;12.76;100.00;102925.28;7390873;19;20014;-79
2022/07/10 02:26:24;;;;;;;7.18;2.50;;;;;;;12.80;100.00;102921.03;7386509;19;20525;-80
2022/07/10 02:28:54;;;;;;;8.00;2.50;;;;;;;12.80;100.00;102914.03;7385854;19;20047;-80
2022/07/10 02:31:24;;;;;;;9.73;2.92;;;;;;;12.76;100.00;102920.91;7382695;19;20019;-80
2022/07/10 02:33:54;;;;;;;7.55;3.10;;;;;;;12.76;100.00;102927.91;7383781;19;20428;-78
2022/07/10 02:36:25;;;;;;;4.95;2.47;;;;;;;12.74;100.00;102932.22;7384353;19;20011;-78
2022/07/10 02:38:58;;;;;;;5.20;2.08;;;;;;;12.70;100.00;102935.59;7383381;19;20010;-78
2022/07/10 02:41:28;;;;;;;8.87;2.70;;;;;;;12.68;100.00;102929.38;7382650;19;20029;-79
2022/07/10 02:43:58;;;;;;;5.50;2.60;;;;;;;12.71;100.00;102932.13;7382315;19;20451;-77
2022/07/10 02:46:29;;;;;;;6.90;2.53;;;;;;;12.71;100.00;102933.00;7383513;19;20011;-79
2022/07/10 02:49:00;;;;;;;5.90;2.60;;;;;;;12.68;100.00;102924.09;7385550;19;20033;-80
2022/07/10 02:51:30;;;;;;;7.13;3.00;;;;;;;12.67;100.00;102931.09;7382349;19;20018;-79
2022/07/10 02:54:02;;;;;;;4.10;2.40;;;;;;;12.65;100.00;102929.25;7377874;19;20590;-80
2022/07/10 02:56:33;;;;;;;11.60;2.87;;;;;;;12.64;100.00;102925.72;7385522;19;20026;-79
2022/07/10 02:59:03;;;;;;;6.97;2.55;;;;;;;12.65;100.00;102919.63;7385157;19;20015;-78
2022/07/10 03:01:32;;;;;;;6.35;2.33;;;;;;;12.66;100.00;102921.41;7382901;19;20037;-78
2022/07/10 03:04:02;;;;;;;5.40;2.50;;;;;;;12.67;100.00;102911.78;7384800;19;20011;-79
2022/07/10 03:06:33;;;;;;;6.32;3.13;;;;;;;12.73;100.00;102914.63;7388538;19;20007;-78
2022/07/10 03:09:06;;;;;;;7.40;2.92;;;;;;;12.74;100.00;102909.44;7385748;19;20151;-78
2022/07/10 03:11:36;;;;;;;7.47;2.53;;;;;;;12.78;100.00;102915.72;7384680;19;20022;-79
2022/07/10 03:14:07;;;;;;;7.22;3.95;;;;;;;12.83;100.00;102906.25;7386205;19;20026;-79
2022/07/10 03:16:38;;;;;;;3.33;2.22;;;;;;;12.90;100.00;102908.25;7384212;19;20115;-79
2022/07/10 03:19:08;;;;;;;7.63;2.75;;;;;;;12.95;100.00;102900.53;7380307;19;20042;-79
2022/07/10 03:21:38;;;;;;;5.60;2.42;;;;;;;13.02;100.00;102905.19;7381747;19;20019;-78
2022/07/10 03:24:11;;;;;;;5.15;2.38;;;;;;;13.04;100.00;102899.13;7384014;19;20030;-79
2022/07/10 03:26:42;;;;;;;12.70;3.28;;;;;;;13.08;100.00;102897.50;7381675;19;20042;-79
2022/07/10 03:29:12;;;;;;;4.88;2.45;;;;;;;13.14;100.00;102904.72;7384343;19;20010;-79
2022/07/10 03:31:49;;;;;;;8.55;2.60;;;;;;;13.20;100.00;102895.34;7381263;19;20010;-78
2022/07/10 03:34:20;;;;;;;6.00;2.47;;;;;;;13.22;100.00;102895.38;7381945;19;20007;-80
2022/07/10 03:36:51;;;;;;;8.23;2.38;;;;;;;13.27;100.00;102886.81;7381916;19;20007;-79
2022/07/10 03:39:25;;;;;;;8.68;2.78;;;;;;;13.34;100.00;102891.44;7380769;19;20022;-79
2022/07/10 03:41:55;;;;;;;5.28;2.70;;;;;;;13.37;100.00;102890.66;7379173;19;20014;-79
2022/07/10 03:44:25;;;;;;;8.90;2.72;;;;;;;13.37;100.00;102890.66;7379422;19;20011;-80
2022/07/10 03:46:55;;;;;;;9.90;3.00;;;;;;;13.39;100.00;102887.22;7379401;19;20011;-79
2022/07/10 03:49:26;;;;;;;8.48;2.92;;;;;;;13.46;100.00;102887.44;7377792;19;20010;-79
2022/07/10 03:51:56;;;;;;;8.30;2.63;;;;;;;13.48;100.00;102883.09;7381355;19;20014;-79
2022/07/10 03:54:28;;;;;;;6.28;2.40;;;;;;;13.53;100.00;102892.94;7375044;19;20020;-79
2022/07/10 03:59:56;;;;;;;4.95;2.63;;;;;;;13.61;100.00;102885.28;7376326;19;20046;-79
2022/07/10 04:02:26;;;;;;;5.03;2.40;;;;;;;13.65;100.00;102882.78;7377071;19;20015;-79
2022/07/10 04:04:56;;;;;;;9.93;2.47;;;;;;;13.69;100.00;102884.69;7384021;19;20531;-79
2022/07/10 04:07:26;;;;;;;5.82;2.60;;;;;;;13.74;100.00;102883.09;7378906;19;20014;-80
2022/07/10 04:09:59;;;;;;;2.55;2.00;;;;;;;13.80;100.00;102881.50;7385907;19;20010;-79
2022/07/10 04:12:31;;;;;;;10.38;2.78;;;;;;;13.84;100.00;102883.41;7379853;19;20333;-80
2022/07/10 04:15:01;;;;;;;5.57;2.38;;;;;;;13.88;100.00;102880.00;7382425;19;20010;-80
2022/07/10 04:17:32;;;;;;;6.75;2.60;;;;;;;13.90;100.00;102881.84;7380177;19;20010;-79
2022/07/10 04:20:02;;;;;;;8.70;2.80;;;;;;;13.96;100.00;102882.03;7381041;19;20007;-80
2022/07/10 04:22:32;;;;;;;7.05;2.70;;;;;;;14.03;100.00;102880.50;7377361;19;20070;-78
2022/07/10 04:25:05;;;;;;;6.10;2.40;;;;;;;14.07;100.00;102878.00;7379137;19;20492;-79
2022/07/10 04:27:37;;;;;;;6.80;2.38;;;;;;;14.13;100.00;102877.31;7381182;19;20015;-79
2022/07/10 04:30:09;;;;;;;6.85;2.22;;;;;;;14.14;100.00;102879.09;7379791;19;20011;-80
2022/07/10 04:32:41;;;;;;;5.97;2.40;;;;;;;14.19;100.00;102884.50;7382032;19;20019;-80
2022/07/10 04:35:12;;;;;;;6.18;2.30;;;;;;;14.24;100.00;102885.56;7381766;19;20011;-80
2022/07/10 04:37:42;;;;;;;7.60;3.17;;;;;;;14.24;100.00;102885.56;7381067;19;20018;-80
2022/07/10 04:40:16;;;;;;;6.55;2.47;;;;;;;14.27;100.00;102890.94;7380010;19;20048;-80
2022/07/10 04:42:46;;;;;;;8.30;2.95;;;;;;;14.28;100.00;102887.44;7378049;19;20682;-80
2022/07/10 04:45:17;;;;;;;7.18;2.55;;;;;;;14.32;100.00;102884.03;7379265;19;20030;-80
2022/07/10 04:47:47;;;;;;;5.15;2.40;;;;;;;14.39;100.00;102886.03;7379602;19;20007;-80
2022/07/10 04:50:18;;;;;;;11.57;2.67;;;;;;;14.35;100.00;102894.69;7380474;19;20031;-81
2022/07/10 04:52:51;;;;;;;6.70;2.20;;;;;;;14.38;100.00;102898.31;7374011;19;20046;-78
2022/07/10 04:55:24;;;;;;;8.00;2.40;;;;;;;14.43;100.00;102898.50;7382541;19;20078;-80
2022/07/10 04:57:55;;;;;;;5.63;2.50;;;;;;;14.44;100.00;102894.09;7380417;19;20011;-80
2022/07/10 05:00:25;;;;;;;7.13;2.40;;;;;;;14.48;100.00;102886.31;7382217;19;20423;-80
2022/07/10 05:02:55;;;;;;;7.63;2.65;;;;;;;14.58;100.00;102893.63;7380328;19;20023;-80
2022/07/10 05:05:26;;;;;;;6.43;3.53;;;;;;;14.66;100.00;102888.56;7380154;19;20017;-80
2022/07/10 05:07:57;;;;;;;7.28;2.50;;;;;;;14.70;100.00;102903.66;7385523;19;20032;-79
2022/07/10 05:10:30;;;;;;;8.18;3.00;;;;;;;14.77;100.00;102904.75;7382308;19;20007;-79
2022/07/10 05:13:03;;;;;;;6.85;2.72;;;;;;;14.80;100.00;102904.81;7387938;19;20014;-79
2022/07/10 05:15:33;;;;;;;5.22;2.60;;;;;;;14.86;100.00;102900.63;7391581;19;20028;-77
2022/07/10 05:18:04;;;;;;;5.55;2.42;;;;;;;14.92;100.00;102899.88;7389948;19;20007;-76
2022/07/10 05:20:35;;;;;;;8.50;2.80;;;;;;;14.97;100.00;102903.56;7390502;19;20007;-79
2022/07/10 05:23:05;;;;;;;6.63;2.25;;;;;;;14.96;100.00;102897.38;7390742;19;20019;-79
2022/07/10 05:25:40;;;;;;;6.05;2.40;;;;;;;15.08;100.00;102894.19;7395751;19;20014;-79
2022/07/10 05:28:14;;;;;;;5.03;2.30;;;;;;;15.14;100.00;102893.44;7391443;19;20047;-76
2022/07/10 05:30:44;;;;;;;8.73;2.95;;;;;;;15.21;100.00;102888.38;7393654;19;20003;-78
2022/07/10 05:33:14;;;;;;;7.20;2.78;;;;;;;15.32;100.00;102897.47;7389265;19;20006;-76
2022/07/10 05:35:44;;;;;;;9.05;2.63;;;;;;;15.40;100.00;102895.03;7394003;19;20054;-78
2022/07/10 05:38:14;;;;;;;7.20;2.40;;;;;;;15.49;100.00;102894.38;7390600;19;20019;-76
2022/07/10 05:40:53;;;;;;;8.15;2.90;;;;;;;15.44;100.00;102893.38;7393656;19;20039;-77
2022/07/10 05:43:26;;;;;;;8.07;2.42;;;;;;;15.51;100.00;102897.97;7387908;19;20006;-77
2022/07/10 05:45:57;;;;;;;7.85;2.25;;;;;;;15.49;100.00;102894.38;7387891;19;20010;-77
2022/07/10 05:48:29;;;;;;;10.45;3.20;;;;;;;15.71;100.00;102891.44;7391780;19;20017;-80
2022/07/10 05:51:00;;;;;;;7.03;2.72;;;;;;;15.69;100.00;102882.56;7389626;19;20006;-80
2022/07/10 05:53:51;;;;;;;10.50;3.03;;;;;;;15.97;100.00;102889.41;7381379;19;20053;-78
2022/07/10 05:56:35;;;;;;;7.53;2.73;;;;;;;16.00;100.00;102882.44;7384585;19;20074;-78
2022/07/10 05:59:46;;;;;;;5.03;2.53;;;;;;;15.93;100.00;102888.44;7384538;19;20015;-78
2022/07/10 06:02:21;;;;;;;8.63;2.50;;;;;;;15.86;100.00;102886.50;7382909;19;20425;-78
2022/07/10 06:04:54;;;;;;;5.55;2.50;;;;;;;15.98;100.00;102877.97;7386277;19;20011;-77
2022/07/10 06:07:24;;;;;;;7.35;2.50;;;;;;;16.05;99.66;102877.25;7383375;19;20006;-77
2022/07/10 06:09:54;;;;;;;7.55;2.78;;;;;;;16.09;99.88;102887.06;7384677;19;20496;-80
2022/07/10 06:12:27;;;;;;;7.80;2.38;;;;;;;16.01;99.11;102881.56;7386885;19;20042;-80
2022/07/10 06:14:57;;;;;;;11.32;2.90;;;;;;;16.15;98.51;102863.38;7385527;19;20018;-80
2022/07/10 06:17:28;;;;;;;6.10;2.92;;;;;;;16.18;98.44;102868.72;7386844;19;20037;-81
2022/07/10 06:19:58;;;;;;;8.80;2.90;;;;;;;16.34;96.55;102864.66;7388213;19;20038;-81
2022/07/10 06:22:34;;;;;;;6.95;2.40;;;;;;;16.33;96.10;102878.78;7387464;19;20364;-81
2022/07/10 06:25:07;;;;;;;5.53;2.40;;;;;;;16.41;96.44;102886.88;7387433;19;20018;-81
2022/07/10 06:27:42;;;;;;;3.83;2.13;;;;;;;16.47;95.99;102877.31;7389465;19;20086;-82
2022/07/10 06:30:18;;;;;;;6.90;2.33;;;;;;;16.55;96.07;102878.38;7386552;19;20010;-80
2022/07/10 06:32:49;;;;;;;6.10;2.42;;;;;;;16.54;96.20;102883.63;7383114;19;20034;-76
2022/07/10 06:35:22;;;;;;;6.65;2.30;;;;;;;16.65;96.33;102885.66;7384029;19;20538;-77
2022/07/10 06:37:53;;;;;;;5.78;2.60;;;;;;;16.66;96.06;102882.13;7382994;19;20021;-80
2022/07/10 06:40:26;;;;;;;4.60;2.75;;;;;;;17.20;95.19;102872.59;7387551;19;20014;-81
2022/07/10 06:43:03;;;;;;;5.10;2.40;;;;;;;17.30;93.70;102879.84;7383339;19;20006;-78
2022/07/10 06:45:59;;;;;;;6.90;2.75;;;;;;;17.28;93.13;102882.47;7378862;19;20015;-78
2022/07/10 06:48:28;;;;;;;5.57;2.47;;;;;;;17.25;91.97;102879.75;7380515;19;20035;-77
2022/07/10 06:50:59;;;;;;;8.20;2.67;;;;;;;17.43;89.87;102876.53;7378577;19;20007;-76
2022/07/10 06:53:31;;;;;;;4.53;2.67;;;;;;;17.49;90.15;102876.63;7375817;19;20035;-78
2022/07/10 06:56:01;;;;;;;5.93;2.30;;;;;;;17.67;89.62;102881.41;7379896;19;20042;-78
2022/07/10 06:58:35;;;;;;;7.68;2.55;;;;;;;17.39;90.27;102879.09;7376426;19;20014;-77
2022/07/10 07:01:06;;;;;;;9.40;3.05;;;;;;;17.25;90.48;102887.72;7381940;19;20007;-77
2022/07/10 07:03:38;;;;;;;8.70;2.70;;;;;;;17.33;91.06;102886.09;7381278;19;20027;-77
2022/07/10 07:06:10;;;;;;;5.95;2.75;;;;;;;17.50;89.57;102880.19;7381469;19;20053;-78
2022/07/10 07:08:42;;;;;;;7.93;3.13;;;;;;;17.45;89.85;102880.09;7382499;19;20010;-77
2022/07/10 07:11:25;;;;;;;;;;;;;;;;;;;;;
2022/07/10 07:14:09;;;;;;;9.77;2.88;;;;;;;17.61;88.54;102884.81;7380079;19;20069;-78
2022/07/10 07:16:57;;;;;;;11.27;3.20;;;;;;;17.70;88.04;102886.72;7380938;19;20017;-77
2022/07/10 07:23:09;;;;;;;5.38;2.75;;;;;;;17.85;88.30;102886.06;7377581;19;20010;-79
2022/07/10 07:25:18;;;;;;;5.22;2.50;;;;;;;17.66;87.81;102884.91;7378482;19;20046;-77
2022/07/10 07:27:58;;;;;;;6.97;2.65;;;;;;;17.94;87.64;102887.13;7378533;19;20010;-78
2022/07/10 07:30:31;;;;;;;11.27;2.95;;;;;;;18.24;86.70;102886.66;7379983;19;20021;-80
2022/07/10 07:33:01;;;;;;;5.47;2.58;;;;;;;17.85;85.47;102886.06;7379060;19;20011;-78
2022/07/10 07:35:33;;;;;;;5.63;2.95;;;;;;;17.84;86.85;102884.28;7379670;19;20081;-78
2022/07/10 07:38:14;;;;;;;7.85;2.60;;;;;;;18.20;84.87;102886.59;7377979;19;20090;-78
2022/07/10 07:40:48;;;;;;;7.80;2.60;;;;;;;18.13;83.96;102887.38;7373611;19;20074;-78
2022/07/10 07:43:35;;;;;;;7.50;2.55;;;;;;;18.09;84.54;102882.91;7376415;19;20117;-78
2022/07/10 07:46:12;;;;;;;10.75;2.55;;;;;;;17.86;86.24;102879.91;7374886;19;20015;-80
2022/07/10 07:48:45;;;;;;;4.80;2.30;;;;;;;18.23;85.35;102890.19;7378339;19;20083;-78
2022/07/10 07:51:45;;;;;;;7.20;2.58;;;;;;;18.38;82.62;102889.53;7375234;19;20007;-77
2022/07/10 07:54:26;;;;;;;6.93;2.38;;;;;;;18.55;81.41;102887.09;7368274;19;20010;-79
2022/07/10 07:57:10;;;;;;;4.25;2.45;;;;;;;18.49;83.15;102898.53;7374524;19;20108;-79
2022/07/10 07:59:48;;;;;;;8.73;2.35;;;;;;;18.40;83.07;102890.44;7375548;19;20015;-78
2022/07/10 08:02:38;;;;;;;5.93;2.50;;;;;;;18.45;84.21;102896.69;7375721;19;20011;-79
2022/07/10 08:05:14;;;;;;;7.38;2.42;;;;;;;18.35;83.88;102899.22;7376191;19;20010;-78
2022/07/10 08:07:59;;;;;;;4.60;2.30;;;;;;;18.13;84.86;102895.34;7375722;19;20040;-79
2022/07/10 08:13:24;;;;;;;7.03;2.40;;;;;;;18.47;83.55;102888.75;7377983;19;20042;-80
2022/07/10 08:16:00;;;;;;;6.75;2.47;;;;;;;18.38;84.23;102889.53;7382086;19;20098;-77
2022/07/10 08:18:58;;;;;;;6.78;2.47;;;;;;;18.48;82.72;102887.88;7374081;19;20018;-78
2022/07/10 08:21:35;;;;;;;6.30;2.65;;;;;;;18.66;81.82;102889.91;7373156;19;20003;-80
2022/07/10 08:24:07;;;;;;;7.50;3.10;;;;;;;18.95;80.90;102893.78;7372432;19;20468;-79
2022/07/10 08:26:38;;;;;;;5.93;2.63;;;;;;;18.86;81.25;102888.34;7377204;19;20031;-78
2022/07/10 08:29:07;;;;;;;4.90;2.90;;;;;;;18.91;80.14;102886.66;7382344;19;20011;-79
2022/07/10 08:31:39;;;;;;;7.15;2.42;;;;;;;19.11;80.54;102890.41;7381976;19;20011;-80
2022/07/10 08:34:12;;;;;;;5.88;2.33;;;;;;;18.98;80.08;102893.81;7381337;19;20044;-79
2022/07/10 08:36:42;;;;;;;7.80;2.58;;;;;;;19.10;80.50;102891.28;7386413;19;20006;-81
2022/07/10 08:39:23;;;;;;;9.15;2.65;;;;;;;19.36;79.75;102888.00;7386709;19;20017;-79
2022/07/10 08:41:53;;;;;;;5.75;2.42;;;;;;;18.82;79.37;102895.41;7388431;19;20010;-79
2022/07/10 08:44:24;;;;;;;7.95;2.35;;;;;;;18.87;80.26;102888.38;7385384;19;20010;-78
2022/07/10 08:46:54;;;;;;;7.10;2.88;;;;;;;19.45;77.47;102886.31;7387798;19;20006;-80
2022/07/10 08:49:30;;;;;;;5.80;2.47;;;;;;;19.25;77.77;102888.78;7392499;19;20007;-80
2022/07/10 08:52:09;;;;;;;6.68;2.53;;;;;;;19.19;77.43;102883.41;7389470;19;20085;-77
2022/07/10 08:54:41;;;;;;;7.18;2.45;;;;;;;19.52;78.19;102874.00;7385106;19;20026;-77
2022/07/10 08:57:14;;;;;;;6.17;2.43;;;;;;;19.13;78.21;102880.69;7391496;19;20025;-79
2022/07/10 08:59:44;;;;;;;7.85;2.30;;;;;;;19.58;78.75;102877.59;7388625;19;20007;-78
2022/07/10 09:02:14;;;;;;;6.95;2.50;;;;;;;19.96;76.98;102868.97;7375081;19;21085;-79
2022/07/10 09:04:48;;;;;;;7.10;2.30;;;;;;;19.91;74.22;102866.28;7382103;19;20006;-81
2022/07/10 09:07:19;;;;;;;6.10;2.50;;;;;;;19.87;74.16;102867.13;7377536;19;20022;-81
2022/07/10 09:09:59;;;;;;;4.80;2.22;;;;;;;20.19;74.05;102861.13;7375275;19;20014;-82
2022/07/10 09:12:28;;;;;;;5.82;2.63;;;;;;;19.72;76.09;102867.06;7379231;19;20063;-79
2022/07/10 09:15:18;;;;;;;6.20;2.58;;;;;;;19.76;76.15;102871.50;7378923;19;20014;-81
2022/07/10 09:17:59;;;;;;;7.07;2.80;;;;;;;19.38;77.94;102872.94;7378719;19;20033;-79
2022/07/10 09:20:34;;;;;;;7.72;2.75;;;;;;;19.43;76.60;102879.19;7380369;19;20455;-80
2022/07/10 09:23:18;;;;;;;6.03;2.92;;;;;;;19.55;75.93;102866.91;7378283;19;20017;-78
2022/07/10 09:25:53;;;;;;;9.10;3.00;;;;;;;19.43;74.70;102868.56;7379289;19;20019;-79
2022/07/10 09:28:25;;;;;;;6.28;2.50;;;;;;;19.44;74.86;102865.00;7373624;19;20627;-79
2022/07/10 09:30:55;;;;;;;6.15;2.38;;;;;;;20.02;73.54;102854.81;7377367;19;20011;-74
2022/07/10 09:33:29;;;;;;;6.63;2.75;;;;;;;20.03;73.67;102857.47;7374267;19;20064;-77
2022/07/10 09:36:08;;;;;;;7.50;2.40;;;;;;;19.85;74.31;102860.91;7378163;19;20022;-78
2022/07/10 09:38:56;;;;;;;12.45;2.70;;;;;;;20.11;72.89;102868.19;7375680;19;20078;-78
2022/07/10 09:41:29;;;;;;;10.82;2.65;;;;;;;20.39;71.80;102859.47;7378737;19;20010;-78
2022/07/10 09:44:00;;;;;;;6.10;2.40;;;;;;;20.73;71.32;102859.63;7382131;19;20006;-78
2022/07/10 09:46:40;;;;;;;5.22;2.13;;;;;;;20.16;70.43;102853.09;7373156;19;20418;-79
2022/07/10 09:49:12;;;;;;;5.47;2.50;;;;;;;20.28;69.87;102860.28;7378858;19;20034;-78
2022/07/10 09:51:47;;;;;;;5.80;2.50;;;;;;;20.12;69.16;102860.19;7378424;19;20006;-80
2022/07/10 09:54:19;;;;;;;3.45;2.08;;;;;;;20.10;67.52;102851.31;7370219;19;20021;-79
2022/07/10 09:56:51;;;;;;;8.18;2.30;;;;;;;20.91;67.73;102843.63;7379319;19;20011;-79
2022/07/10 09:59:23;;;;;;;3.53;2.08;;;;;;;20.90;64.36;102842.75;7379072;19;20021;-77
2022/07/10 10:01:55;;;;;;;6.38;2.40;;;;;;;20.90;62.83;102852.53;7381655;19;20011;-78
2022/07/10 10:04:28;;;;;;;7.00;2.65;;;;;;;21.54;64.37;102852.63;7379955;19;20021;-79
2022/07/10 10:07:02;;;;;;;6.65;2.60;;;;;;;21.66;61.51;102847.28;7377597;19;20010;-78
2022/07/10 10:09:41;;;;;;;7.13;2.30;;;;;;;21.12;61.38;102846.34;7380006;19;20094;-79
2022/07/10 10:12:19;;;;;;;4.50;2.45;;;;;;;21.04;61.96;102837.44;7375323;19;20011;-79
2022/07/10 10:14:57;;;;;;;4.95;2.47;;;;;;;21.29;61.38;102830.38;7375885;19;20017;-79
2022/07/10 10:17:30;;;;;;;5.40;2.53;;;;;;;21.00;62.13;102832.97;7376085;19;20015;-77
2022/07/10 10:22:55;;;;;;;7.03;2.40;;;;;;;22.15;61.10;102836.50;7374570;19;20006;-79
2022/07/10 10:25:27;;;;;;;4.90;2.25;;;;;;;21.70;59.97;102833.03;7375408;19;20011;-81
2022/07/10 10:27:59;;;;;;;5.68;2.40;;;;;;;22.23;61.79;102831.13;7381615;19;20511;-78
2022/07/10 10:30:33;;;;;;;9.80;2.75;;;;;;;22.65;60.13;102827.38;7381765;19;20016;-82
2022/07/10 10:33:09;;;;;;;;;;;;;;;22.30;59.13;102831.09;7382221;19;20612;-83
2022/07/10 10:35:49;;;;;;;4.65;2.30;;;;;;;22.61;59.04;102820.28;7383124;19;19994;-79
2022/07/10 10:38:23;;;;;;;5.32;2.35;;;;;;;22.29;58.48;102826.66;7374895;19;20368;-75
2022/07/10 10:40:56;;;;;;;4.63;2.13;;;;;;;22.31;58.31;102826.66;7374579;19;20762;-78
2022/07/10 10:43:26;;;;;;;5.47;2.63;;;;;;;21.70;58.45;102832.16;7373879;19;20042;-79
2022/07/10 10:45:56;;;;;;;5.43;2.30;;;;;;;21.97;59.84;102828.50;7373160;19;20015;-77
2022/07/10 10:48:27;;;;;;;9.18;2.70;;;;;;;22.69;59.58;102819.34;7374159;19;20010;-75
2022/07/10 10:51:18;;;;;;;4.18;2.13;;;;;;;22.26;58.02;102834.69;7373964;19;20011;-78
2022/07/10 10:54:07;;;;;;;7.15;2.40;;;;;;;22.28;57.71;102827.56;7377498;19;20121;-79
2022/07/10 10:56:38;;;;;;;6.90;2.30;;;;;;;21.86;59.06;102840.09;7380292;19;20018;-77
2022/07/10 10:59:08;;;;;;;6.85;2.47;;;;;;;21.88;57.51;102826.75;7374896;19;20342;-76
2022/07/10 11:01:39;;;;;;;4.60;2.10;;;;;;;21.94;58.41;102829.41;7374085;19;20054;-78
2022/07/10 11:04:21;;;;;;;6.47;2.20;;;;;;;22.38;56.81;102828.41;7372258;19;20006;-77
2022/07/10 11:06:56;;;;;;;4.93;2.17;;;;;;;21.97;56.23;102832.06;7370916;19;20010;-78
2022/07/10 11:09:34;;;;;;;4.13;2.42;;;;;;;21.53;56.79;102819.69;7378593;19;20020;-78
2022/07/10 11:12:12;;;;;;;5.95;2.17;;;;;;;22.42;56.88;102820.38;7373260;19;20071;-79
2022/07/10 11:14:47;;;;;;;3.85;2.22;;;;;;;22.14;53.71;102826.72;7379341;19;20025;-80
2022/07/10 11:17:18;;;;;;;8.68;2.70;;;;;;;21.87;54.60;102816.94;7376470;19;20471;-80
2022/07/10 11:19:48;;;;;;;4.30;2.22;;;;;;;22.08;56.15;102824.06;7381033;19;20010;-78
2022/07/10 11:22:56;;;;;;;4.93;2.20;;;;;;;22.00;53.41;102820.47;7381881;19;20025;-80
2022/07/10 11:25:45;;;;;;;7.07;2.58;;;;;;;22.52;52.41;102813.19;7381561;19;20013;-79
2022/07/10 11:28:18;;;;;;;5.93;2.30;;;;;;;22.14;51.58;102808.00;7383783;19;20010;-80
2022/07/10 11:30:50;;;;;;;7.88;2.13;;;;;;;22.31;52.58;102799.91;7378996;19;20056;-79
2022/07/10 11:33:21;;;;;;;7.03;2.30;;;;;;;22.85;51.55;102798.75;7381941;19;20014;-81
2022/07/10 11:35:53;;;;;;;6.88;2.42;;;;;;;22.15;51.74;102799.97;7380927;19;20014;-81
2022/07/10 11:38:25;;;;;;;5.80;2.10;;;;;;;22.85;50.32;102806.78;7378283;19;20007;-77
2022/07/10 11:40:57;;;;;;;4.50;2.10;;;;;;;22.89;48.77;102802.28;7377121;19;20226;-80
2022/07/10 11:43:29;;;;;;;5.87;2.20;;;;;;;23.01;50.25;102784.34;7382012;19;20289;-79
2022/07/10 11:46:05;;;;;;;4.95;1.90;;;;;;;23.76;48.81;102789.06;7377137;19;20011;-80
2022/07/10 11:48:42;;;;;;;5.07;2.03;;;;;;;22.89;48.32;102797.81;7369177;19;20014;-76
2022/07/10 11:51:29;;;;;;;5.32;2.38;;;;;;;23.03;47.71;102787.00;7376117;19;20010;-77
2022/07/10 11:54:02;;;;;;;7.18;2.50;;;;;;;23.28;49.14;102793.94;7372819;19;20014;-77
2022/07/10 11:56:37;;;;;;;5.38;1.92;;;;;;;22.92;48.58;102784.41;7375405;19;20048;-79
2022/07/10 11:59:11;;;;;;;5.72;2.20;;;;;;;23.75;48.27;102776.56;7382715;19;20024;-79
2022/07/10 12:01:45;;;;;;;5.38;1.90;;;;;;;23.15;46.68;102787.81;7379644;19;20042;-77
2022/07/10 12:04:22;;;;;;;9.90;2.20;;;;;;;23.30;45.93;102792.13;7377641;19;20098;-75
2022/07/10 12:07:03;;;;;;;9.85;5.60;;;;;;;23.78;47.36;102787.25;7380446;19;20018;-81